This is the latest recevied weather packets stored in our database for station/object KG4WIV. If no packets are shown the sender has not sent any weather packets the latest 10 day(s).
| Time | Temp. | Humidity | Pressure | Rain* | Wind** | Luminosity | Snow |
|---|---|---|---|---|---|---|---|
| 1778235302 | 8.89° C | 95% | 1015.7 hPa | 0 mm | - | - | - |
| 1778224547 | 11.11° C | 95% | 1015 hPa | 0 mm | - | - | - |
| 1778206530 | 14.44° C | 92% | 1014.6 hPa | 0.25 mm | - | - | - |
| 1778189408 | 18.33° C | 79% | 1012.3 hPa | 0.25 mm | - | - | - |
| 1778184961 | 18.33° C | 84% | 1012.2 hPa | 0.25 mm | - | - | - |
| 1778181360 | 18.33° C | 83% | 1012.1 hPa | 0.25 mm | - | - | - |
| 1778172351 | 18.89° C | 91% | 1012.1 hPa | 0.51 mm | - | - | - |
| 1778168762 | 17.78° C | 95% | 1011.8 hPa | 0.51 mm | - | - | - |
| 1778165156 | 17.78° C | 97% | 1011.1 hPa | 0.51 mm | - | - | - |
| 1778159765 | 17.22° C | 97% | 1011.1 hPa | 1.02 mm | - | - | - |
| 1778148933 | 17.22° C | 96% | 1009 hPa | 1.27 mm | - | - | - |
| 1778145329 | 17.22° C | 96% | 1009.8 hPa | 1.52 mm | - | - | - |
| 1778140838 | 17.22° C | 96% | 1010.3 hPa | 2.29 mm | - | - | - |
| 1778139928 | 17.22° C | 96% | 1010.3 hPa | 2.54 mm | - | - | - |
| 1778139024 | 17.22° C | 96% | 1010.4 hPa | 2.79 mm | - | - | - |
| 1778137223 | 17.22° C | 96% | 1011.1 hPa | 3.05 mm | - | - | - |
| 1778135422 | 17.22° C | 96% | 1010.7 hPa | 3.81 mm | - | - | - |
| 1778127313 | 17.22° C | 95% | 1012.9 hPa | 5.08 mm | - | - | - |
| 1778117453 | 18.33° C | 93% | 1012.2 hPa | 3.05 mm | - | - | - |
| 1778112051 | 20° C | 93% | 1011.7 hPa | 11.94 mm | - | - | - |
| 1778111153 | 20° C | 92% | 1011.8 hPa | 11.68 mm | - | - | - |
| 1778110256 | 20.56° C | 90% | 1011.6 hPa | 10.67 mm | - | - | - |
| 1778109349 | 21.67° C | 86% | 1012 hPa | 4.83 mm | - | - | - |
| 1778106644 | 24.44° C | 75% | 1011.1 hPa | 0 mm | - | - | - |
| 1778104848 | 24.44° C | 72% | 1011.3 hPa | 0 mm | - | - | - |
* Rain latest hour (hover to see other rain measurements)
** Current wind speed in m/s (hover to see current wind gust speed)